Capt Mark — WDF5784 — position and weather

sailwx.info

Track history (hours):
 
Tides and Currents Weather Stations Pressure Air Temp Water Temp Dewpoint Dewpoint Depression Visibility Wind Speed Wind Dir Waves Ship Positions

Capt Mark

Owner: CENTRAL BOAT RENTALS, BERWICK, LA. More information available from US FCC via Universal Licensing System and Coast Guard Vessel Documentation Center.

Last reported at 2017-Dec-16 04:06 UTC. Time now 2017-Dec-16 05:15 UTC.
Position N 29°51' W 092°22'.

Length 15 m; draft 2.5 m.

Type: Tug. MMSI: 367467170.

Date/timePositionNaut miles runAvg speedWind from/ knotsBaromVisibWave heightAir tempDewpointWater temp
2017-Dec-16 04:06N 29°51' W 092°22'1 6.9
2017-Dec-16 04:00N 29°51' W 092°21'3 5.3
2017-Dec-16 03:30N 29°50' W 092°18'3 6.8
2017-Dec-16 03:00N 29°48' W 092°15'3 5.6
2017-Dec-16 02:30N 29°47' W 092°12'1 1.4
2017-Dec-16 01:58N 29°47' W 092°11'0 0.0
2017-Dec-16 01:28N 29°47' W 092°11'0 0.1
2017-Dec-16 00:58N 29°47' W 092°11'2 4.0
2017-Dec-16 00:30N 29°47' W 092°09'3 5.7
2017-Dec-16 00:00N 29°48' W 092°06'3 6.0
2017-Dec-15 23:30N 29°49' W 092°03'3 5.7
2017-Dec-15 22:59N 29°50' W 091°59'3 5.3
2017-Dec-15 22:20N 29°51' W 091°56'7 0.4
2017-Dec-15 05:15N 29°56' W 091°50'1 3.4
2017-Dec-15 05:00N 29°56' W 091°50'3 5.3
2017-Dec-15 04:31N 29°53' W 091°50'3 5.1
2017-Dec-15 04:00N 29°50' W 091°50'10 6.0
2017-Dec-15 02:23N 29°46' W 091°40'10 7.3
2017-Dec-15 00:58N 29°41' W 091°30'  
2017-Dec-11 22:32N 29°50' W 091°58'0 6.6
2017-Dec-11 22:30N 29°50' W 091°58'4 6.6
2017-Dec-11 21:54N 29°49' W 092°02'3 6.8
2017-Dec-11 21:30N 29°48' W 092°05'3 7.0
2017-Dec-11 21:00N 29°47' W 092°09'3 6.4
2017-Dec-11 20:30N 29°47' W 092°13'4 7.3
2017-Dec-11 20:00N 29°49' W 092°16'37 6.7
2017-Dec-11 14:26N 29°56' W 092°59'3 6.7
2017-Dec-11 14:00N 29°56' W 093°02'3 6.6
2017-Dec-11 13:30N 29°56' W 093°06'3 6.5
2017-Dec-11 13:00N 29°56' W 093°09'3 6.5
2017-Dec-11 12:30N 29°59' W 093°12'3 5.9
2017-Dec-11 12:00N 30°01' W 093°14'3 5.9
2017-Dec-11 11:30N 30°03' W 093°16'2 4.8
2017-Dec-11 11:00N 30°05' W 093°18'2 3.2
2017-Dec-11 10:30N 30°06' W 093°19'3 6.0
2017-Dec-11 10:00N 30°04' W 093°22'4 7.1
2017-Dec-11 09:30N 30°04' W 093°26'3 7.0
2017-Dec-11 09:00N 30°04' W 093°30'4 7.1
2017-Dec-11 08:30N 30°04' W 093°34'4 7.3
2017-Dec-11 08:00N 30°04' W 093°38'4 7.5
2017-Dec-11 07:30N 30°03' W 093°43'201 6.4
2017-Dec-09 23:49N 28°10' W 096°53'3 5.7
2017-Dec-09 23:12N 28°07' W 096°55'1 5.6
2017-Dec-09 22:59N 28°06' W 096°56'5 6.2
2017-Dec-09 22:13N 28°02' W 096°60'2 6.2
2017-Dec-09 21:57N 28°01' W 097°01'3 6.2
2017-Dec-09 21:29N 27°59' W 097°03'3 5.7
2017-Dec-09 21:00N 27°56' W 097°04'3 5.5
2017-Dec-09 20:29N 27°54' W 097°03'3 0.7
2017-Dec-09 16:30N 27°51' W 097°04'0 0.0
2017-Dec-09 16:00N 27°51' W 097°04'0 0.6
2017-Dec-09 15:30N 27°51' W 097°04'5 9.1
2017-Dec-09 15:00N 27°50' W 097°09'2 4.2
2017-Dec-09 14:29N 27°49' W 097°11'0 0.4
2017-Dec-09 14:00N 27°49' W 097°11'2 4.2
2017-Dec-09 13:29N 27°50' W 097°14'2 3.0
2017-Dec-09 12:59N 27°51' W 097°14'0 0.4
2017-Dec-09 12:30N 27°51' W 097°14'1 2.2
2017-Dec-09 12:00N 27°50' W 097°14'2 4.1
2017-Dec-09 11:29N 27°49' W 097°12'2 4.6
2017-Dec-09 11:00N 27°50' W 097°09'2 4.1
2017-Dec-09 10:29N 27°50' W 097°07'2 3.4
2017-Dec-09 09:59N 27°50' W 097°05'2 3.9
2017-Dec-09 09:29N 27°52' W 097°03'3 5.5
2017-Dec-09 08:59N 27°54' W 097°03'2 4.7
2017-Dec-09 08:30N 27°56' W 097°04'2 4.5
2017-Dec-09 08:00N 27°59' W 097°03'2 4.9
2017-Dec-09 07:30N 28°01' W 097°01'2 4.8
2017-Dec-09 06:59N 28°03' W 096°59'2 4.4
2017-Dec-09 06:29N 28°04' W 096°58'2 4.7
2017-Dec-09 05:59N 28°06' W 096°56'2 3.7
2017-Dec-09 05:29N 28°08' W 096°55'2 3.7
2017-Dec-09 05:00N 28°09' W 096°54'2 4.0
2017-Dec-09 04:29N 28°10' W 096°52'2 4.0
2017-Dec-09 03:59N 28°12' W 096°50'  
Track history (hours):
 
Tides and Currents Weather Stations Pressure Air Temp Water Temp Dewpoint Dewpoint Depression Visibility Wind Speed Wind Dir Waves Ship Positions

Capt Mark

Owner: CENTRAL BOAT RENTALS, BERWICK, LA. More information available from US FCC via Universal Licensing System and Coast Guard Vessel Documentation Center.

Last reported at 2017-Dec-16 04:06 UTC. Time now 2017-Dec-16 05:15 UTC.
Position N 29°51' W 092°22'.

Length 15 m; draft 2.5 m.

Type: Tug. MMSI: 367467170.

Date/timePositionNaut miles runAvg speedWind from/ knotsBaromVisibWave heightAir tempDewpointWater temp
2017-Dec-16 04:06N 29°51' W 092°22'1 6.9
2017-Dec-16 04:00N 29°51' W 092°21'3 5.3
2017-Dec-16 03:30N 29°50' W 092°18'3 6.8
2017-Dec-16 03:00N 29°48' W 092°15'3 5.6
2017-Dec-16 02:30N 29°47' W 092°12'1 1.4
2017-Dec-16 01:58N 29°47' W 092°11'0 0.0
2017-Dec-16 01:28N 29°47' W 092°11'0 0.1
2017-Dec-16 00:58N 29°47' W 092°11'2 4.0
2017-Dec-16 00:30N 29°47' W 092°09'3 5.7
2017-Dec-16 00:00N 29°48' W 092°06'3 6.0
2017-Dec-15 23:30N 29°49' W 092°03'3 5.7
2017-Dec-15 22:59N 29°50' W 091°59'3 5.3
2017-Dec-15 22:20N 29°51' W 091°56'7 0.4
2017-Dec-15 05:15N 29°56' W 091°50'1 3.4
2017-Dec-15 05:00N 29°56' W 091°50'3 5.3
2017-Dec-15 04:31N 29°53' W 091°50'3 5.1
2017-Dec-15 04:00N 29°50' W 091°50'10 6.0
2017-Dec-15 02:23N 29°46' W 091°40'10 7.3
2017-Dec-15 00:58N 29°41' W 091°30'  
2017-Dec-11 22:32N 29°50' W 091°58'0 6.6
2017-Dec-11 22:30N 29°50' W 091°58'4 6.6
2017-Dec-11 21:54N 29°49' W 092°02'3 6.8
2017-Dec-11 21:30N 29°48' W 092°05'3 7.0
2017-Dec-11 21:00N 29°47' W 092°09'3 6.4
2017-Dec-11 20:30N 29°47' W 092°13'4 7.3
2017-Dec-11 20:00N 29°49' W 092°16'37 6.7
2017-Dec-11 14:26N 29°56' W 092°59'3 6.7
2017-Dec-11 14:00N 29°56' W 093°02'3 6.6
2017-Dec-11 13:30N 29°56' W 093°06'3 6.5
2017-Dec-11 13:00N 29°56' W 093°09'3 6.5
2017-Dec-11 12:30N 29°59' W 093°12'3 5.9
2017-Dec-11 12:00N 30°01' W 093°14'3 5.9
2017-Dec-11 11:30N 30°03' W 093°16'2 4.8
2017-Dec-11 11:00N 30°05' W 093°18'2 3.2
2017-Dec-11 10:30N 30°06' W 093°19'3 6.0
2017-Dec-11 10:00N 30°04' W 093°22'4 7.1
2017-Dec-11 09:30N 30°04' W 093°26'3 7.0
2017-Dec-11 09:00N 30°04' W 093°30'4 7.1
2017-Dec-11 08:30N 30°04' W 093°34'4 7.3
2017-Dec-11 08:00N 30°04' W 093°38'4 7.5
2017-Dec-11 07:30N 30°03' W 093°43'201 6.4
2017-Dec-09 23:49N 28°10' W 096°53'3 5.7
2017-Dec-09 23:12N 28°07' W 096°55'1 5.6
2017-Dec-09 22:59N 28°06' W 096°56'5 6.2
2017-Dec-09 22:13N 28°02' W 096°60'2 6.2
2017-Dec-09 21:57N 28°01' W 097°01'3 6.2
2017-Dec-09 21:29N 27°59' W 097°03'3 5.7
2017-Dec-09 21:00N 27°56' W 097°04'3 5.5
2017-Dec-09 20:29N 27°54' W 097°03'3 0.7
2017-Dec-09 16:30N 27°51' W 097°04'0 0.0
2017-Dec-09 16:00N 27°51' W 097°04'0 0.6
2017-Dec-09 15:30N 27°51' W 097°04'5 9.1
2017-Dec-09 15:00N 27°50' W 097°09'2 4.2
2017-Dec-09 14:29N 27°49' W 097°11'0 0.4
2017-Dec-09 14:00N 27°49' W 097°11'2 4.2
2017-Dec-09 13:29N 27°50' W 097°14'2 3.0
2017-Dec-09 12:59N 27°51' W 097°14'0 0.4
2017-Dec-09 12:30N 27°51' W 097°14'1 2.2
2017-Dec-09 12:00N 27°50' W 097°14'2 4.1
2017-Dec-09 11:29N 27°49' W 097°12'2 4.6
2017-Dec-09 11:00N 27°50' W 097°09'2 4.1
2017-Dec-09 10:29N 27°50' W 097°07'2 3.4
2017-Dec-09 09:59N 27°50' W 097°05'2 3.9
2017-Dec-09 09:29N 27°52' W 097°03'3 5.5
2017-Dec-09 08:59N 27°54' W 097°03'2 4.7
2017-Dec-09 08:30N 27°56' W 097°04'2 4.5
2017-Dec-09 08:00N 27°59' W 097°03'2 4.9
2017-Dec-09 07:30N 28°01' W 097°01'2 4.8
2017-Dec-09 06:59N 28°03' W 096°59'2 4.4
2017-Dec-09 06:29N 28°04' W 096°58'2 4.7
2017-Dec-09 05:59N 28°06' W 096°56'2 3.7
2017-Dec-09 05:29N 28°08' W 096°55'2 3.7
2017-Dec-09 05:00N 28°09' W 096°54'2 4.0
2017-Dec-09 04:29N 28°10' W 096°52'2 4.0
2017-Dec-09 03:59N 28°12' W 096°50'  

Dump ship's entire track history